Time,TemperatureF,DewpointF,PressureIn,WindDirection,WindDirectionDegrees,WindSpeedMPH,WindSpeedGustMPH,Humidity,HourlyPrecipIn,Conditions,Clouds,dailyrainin,SoftwareType,DateUTC
2013-01-07 00:05:00,29.3,27.0,30.34,SSW,206,0.0,0.0,89,0.00,,,0.00,weatherlink.com 1.10,2013-01-07 05:05:00,
2013-01-07 00:20:00,29.1,27.0,30.34,SSW,206,0.0,0.0,90,0.00,,,0.00,weatherlink.com 1.10,2013-01-07 05:20:00,
2013-01-07 00:35:00,29.1,27.0,30.35,SSW,206,0.0,0.0,90,0.00,,,0.00,weatherlink.com 1.10,2013-01-07 05:35:00,
2013-01-07 00:50:00,29.0,27.0,30.34,SSW,206,0.0,0.0,90,0.00,,,0.00,weatherlink.com 1.10,2013-01-07 05:50:00,
2013-01-07 01:05:00,29.1,27.0,30.35,SSW,206,0.0,0.0,90,0.00,,,0.00,weatherlink.com 1.10,2013-01-07 06:05:00,
2013-01-07 01:20:00,29.0,26.0,30.34,SSW,206,0.0,0.0,89,0.00,,,0.00,weatherlink.com 1.10,2013-01-07 06:20:00,
2013-01-07 01:35:00,29.1,27.0,30.34,SSW,206,0.0,0.0,90,0.00,,,0.00,weatherlink.com 1.10,2013-01-07 06:35:00,
2013-01-07 01:50:00,29.1,27.0,30.35,SSW,206,0.0,0.0,90,0.00,,,0.00,weatherlink.com 1.10,2013-01-07 06:50:00,
2013-01-07 02:05:00,29.0,27.0,30.35,SSW,206,0.0,0.0,91,0.00,,,0.00,weatherlink.com 1.10,2013-01-07 07:05:00,
2013-01-07 02:20:00,29.0,27.0,30.35,SSW,206,0.0,0.0,90,0.00,,,0.00,weatherlink.com 1.10,2013-01-07 07:20:00,
2013-01-07 02:35:00,28.9,27.0,30.35,SSW,206,0.0,0.0,91,0.00,,,0.00,weatherlink.com 1.10,2013-01-07 07:35:00,
2013-01-07 02:50:00,28.8,26.0,30.35,SSW,206,0.0,0.0,90,0.00,,,0.00,weatherlink.com 1.10,2013-01-07 07:50:00,
2013-01-07 03:05:00,28.6,26.0,30.36,SSW,206,0.0,0.0,89,0.00,,,0.00,weatherlink.com 1.10,2013-01-07 08:05:00,
2013-01-07 03:20:00,28.4,26.0,30.36,SSW,206,0.0,0.0,90,0.00,,,0.00,weatherlink.com 1.10,2013-01-07 08:20:00,
2013-01-07 03:35:00,28.3,26.0,30.36,SSW,206,0.0,0.0,91,0.00,,,0.00,weatherlink.com 1.10,2013-01-07 08:35:00,
2013-01-07 03:50:00,28.2,26.0,30.36,SSW,206,0.0,0.0,91,0.00,,,0.00,weatherlink.com 1.10,2013-01-07 08:50:00,
2013-01-07 04:05:00,28.2,26.0,30.35,SSW,206,0.0,0.0,91,0.00,,,0.00,weatherlink.com 1.10,2013-01-07 09:05:00,
2013-01-07 04:20:00,28.1,26.0,30.35,SSW,206,0.0,0.0,92,0.00,,,0.00,weatherlink.com 1.10,2013-01-07 09:20:00,
2013-01-07 04:35:00,28.2,25.0,30.35,WSW,253,0.0,0.0,88,0.00,,,0.00,weatherlink.com 1.10,2013-01-07 09:35:00,
2013-01-07 04:50:00,28.5,25.0,30.35,NE,40,0.0,0.0,88,0.00,,,0.00,weatherlink.com 1.10,2013-01-07 09:50:00,
2013-01-07 05:05:00,28.8,26.0,30.35,NE,40,0.0,0.0,88,0.00,,,0.00,weatherlink.com 1.10,2013-01-07 10:05:00,
2013-01-07 05:20:00,29.0,26.0,30.35,SE,136,0.0,1.0,88,0.00,,,0.00,weatherlink.com 1.10,2013-01-07 10:20:00,
2013-01-07 05:35:00,29.1,26.0,30.35,East,101,0.0,0.0,87,0.00,,,0.00,weatherlink.com 1.10,2013-01-07 10:35:00,
2013-01-07 05:50:00,29.3,26.0,30.34,ENE,77,0.0,1.0,87,0.00,,,0.00,weatherlink.com 1.10,2013-01-07 10:50:00,
2013-01-07 06:05:00,29.8,26.0,30.35,NNW,346,0.0,5.0,86,0.00,,,0.00,weatherlink.com 1.10,2013-01-07 11:05:00,
2013-01-07 06:20:00,30.1,26.0,30.35,WNW,294,0.0,4.0,85,0.00,,,0.00,weatherlink.com 1.10,2013-01-07 11:20:00,
2013-01-07 06:35:00,30.0,26.0,30.35,East,94,0.0,1.0,84,0.00,,,0.00,weatherlink.com 1.10,2013-01-07 11:35:00,
2013-01-07 06:50:00,29.8,26.0,30.36,South,189,0.0,3.0,85,0.00,,,0.00,weatherlink.com 1.10,2013-01-07 11:50:00,
2013-01-07 07:05:00,29.5,26.0,30.36,East,81,0.0,2.0,85,0.00,,,0.00,weatherlink.com 1.10,2013-01-07 12:05:00,
2013-01-07 07:20:00,28.9,25.0,30.36,SSW,211,0.0,1.0,86,0.00,,,0.00,weatherlink.com 1.10,2013-01-07 12:20:00,
2013-01-07 07:35:00,28.3,25.0,30.36,SW,233,0.0,3.0,87,0.00,,,0.00,weatherlink.com 1.10,2013-01-07 12:35:00,
2013-01-07 07:50:00,27.8,25.0,30.36,ENE,61,1.0,2.0,88,0.00,,,0.00,weatherlink.com 1.10,2013-01-07 12:50:00,
2013-01-07 08:05:00,27.4,24.0,30.37,NE,48,0.0,3.0,88,0.00,,,0.00,weatherlink.com 1.10,2013-01-07 13:05:00,
2013-01-07 08:20:00,27.0,24.0,30.37,NNW,329,0.0,5.0,89,0.00,,,0.00,weatherlink.com 1.10,2013-01-07 13:20:00,
2013-01-07 08:35:00,26.6,24.0,30.37,WSW,248,0.0,6.0,89,0.00,,,0.00,weatherlink.com 1.10,2013-01-07 13:35:00,
2013-01-07 08:50:00,26.4,23.0,30.37,West,278,3.0,3.0,88,0.00,,,0.00,weatherlink.com 1.10,2013-01-07 13:50:00,
2013-01-07 09:06:00,26.3,23.0,30.37,NW,314,2.0,2.0,88,0.00,,,0.00,weatherlink.com 1.10,2013-01-07 14:06:00,
2013-01-07 09:21:00,26.2,23.0,30.37,West,275,1.0,3.0,87,0.00,,,0.00,weatherlink.com 1.10,2013-01-07 14:21:00,
2013-01-07 09:36:00,26.4,23.0,30.37,North,355,0.0,2.0,87,0.00,,,0.00,weatherlink.com 1.10,2013-01-07 14:36:00,
2013-01-07 09:51:00,26.7,23.0,30.37,West,270,0.0,7.0,85,0.00,,,0.00,weatherlink.com 1.10,2013-01-07 14:51:00,
2013-01-07 10:06:00,27.2,23.0,30.37,West,265,3.0,8.0,84,0.00,,,0.00,weatherlink.com 1.10,2013-01-07 15:06:00,
2013-01-07 10:21:00,27.8,23.0,30.36,SE,134,0.0,1.0,83,0.00,,,0.00,weatherlink.com 1.10,2013-01-07 15:21:00,
2013-01-07 10:36:00,28.5,23.0,30.36,WSW,250,0.0,7.0,80,0.00,,,0.00,weatherlink.com 1.10,2013-01-07 15:36:00,
2013-01-07 10:51:00,29.0,23.0,30.36,West,278,1.0,11.0,77,0.00,,,0.00,weatherlink.com 1.10,2013-01-07 15:51:00,
2013-01-07 11:06:00,29.4,22.0,30.35,NNE,24,0.0,6.0,74,0.00,,,0.00,weatherlink.com 1.10,2013-01-07 16:06:00,
2013-01-07 11:21:00,30.6,23.0,30.34,West,267,0.0,7.0,72,0.00,,,0.00,weatherlink.com 1.10,2013-01-07 16:21:00,
2013-01-07 11:36:00,31.0,23.0,30.33,SSW,208,2.0,3.0,71,0.00,,,0.00,weatherlink.com 1.10,2013-01-07 16:36:00,
2013-01-07 11:51:00,31.4,22.0,30.32,WSW,240,0.0,6.0,69,0.00,,,0.00,weatherlink.com 1.10,2013-01-07 16:51:00,
2013-01-07 12:06:00,31.9,22.0,30.31,NNW,332,0.0,5.0,66,0.00,,,0.00,weatherlink.com 1.10,2013-01-07 17:06:00,
2013-01-07 12:21:00,32.1,20.0,30.29,NNW,327,1.0,8.0,62,0.00,,,0.00,weatherlink.com 1.10,2013-01-07 17:21:00,
2013-01-07 12:36:00,32.7,20.0,30.27,NNE,17,2.0,13.0,60,0.00,,,0.00,weatherlink.com 1.10,2013-01-07 17:36:00,
2013-01-07 12:51:00,33.0,19.0,30.27,NW,308,4.0,9.0,56,0.00,,,0.00,weatherlink.com 1.10,2013-01-07 17:51:00,
2013-01-07 13:06:00,33.7,20.0,30.27,SW,229,0.0,8.0,57,0.00,,,0.00,weatherlink.com 1.10,2013-01-07 18:06:00,
2013-01-07 13:21:00,34.6,21.0,30.26,SE,146,0.0,7.0,57,0.00,,,0.00,weatherlink.com 1.10,2013-01-07 18:21:00,
2013-01-07 13:36:00,34.8,19.0,30.25,SSW,197,0.0,6.0,53,0.00,,,0.00,weatherlink.com 1.10,2013-01-07 18:36:00,
2013-01-07 13:51:00,35.3,20.0,30.25,East,97,1.0,5.0,54,0.00,,,0.00,weatherlink.com 1.10,2013-01-07 18:51:00,
2013-01-07 14:06:00,36.3,20.0,30.24,West,275,0.0,2.0,53,0.00,,,0.00,weatherlink.com 1.10,2013-01-07 19:06:00,
2013-01-07 14:21:00,35.4,19.0,30.24,WNW,302,0.0,5.0,51,0.00,,,0.00,weatherlink.com 1.10,2013-01-07 19:21:00,
2013-01-07 14:36:00,35.4,19.0,30.23,WNW,294,3.0,9.0,52,0.00,,,0.00,weatherlink.com 1.10,2013-01-07 19:36:00,
2013-01-07 14:51:00,35.7,20.0,30.22,SW,229,0.0,5.0,53,0.00,,,0.00,weatherlink.com 1.10,2013-01-07 19:51:00,
2013-01-07 15:06:00,35.9,19.0,30.22,SSE,161,0.0,9.0,50,0.01,,,0.01,weatherlink.com 1.10,2013-01-07 20:06:00,
2013-01-07 15:21:00,36.2,19.0,30.21,West,277,4.0,7.0,49,0.01,,,0.01,weatherlink.com 1.10,2013-01-07 20:21:00,
2013-01-07 15:36:00,36.2,19.0,30.21,WNW,283,0.0,8.0,49,0.01,,,0.01,weatherlink.com 1.10,2013-01-07 20:36:00,
2013-01-07 15:51:00,36.1,20.0,30.21,NNW,333,2.0,3.0,53,0.01,,,0.01,weatherlink.com 1.10,2013-01-07 20:51:00,
2013-01-07 16:06:00,35.9,20.0,30.20,ENE,67,1.0,4.0,53,0.00,,,0.01,weatherlink.com 1.10,2013-01-07 21:06:00,
2013-01-07 16:21:00,35.5,21.0,30.20,SE,139,0.0,9.0,55,0.00,,,0.01,weatherlink.com 1.10,2013-01-07 21:21:00,
2013-01-07 16:36:00,35.0,21.0,30.20,SSW,196,1.0,12.0,58,0.00,,,0.01,weatherlink.com 1.10,2013-01-07 21:36:00,
2013-01-07 16:51:00,34.2,22.0,30.19,WSW,238,0.0,6.0,61,0.00,,,0.01,weatherlink.com 1.10,2013-01-07 21:51:00,
2013-01-07 17:06:00,33.8,22.0,30.18,SE,142,0.0,7.0,62,0.00,,,0.01,weatherlink.com 1.10,2013-01-07 22:06:00,
2013-01-07 17:21:00,33.3,22.0,30.19,SW,220,0.0,3.0,64,0.00,,,0.01,weatherlink.com 1.10,2013-01-07 22:21:00,
2013-01-07 17:37:00,32.8,23.0,30.18,WSW,249,0.0,7.0,66,0.00,,,0.01,weatherlink.com 1.10,2013-01-07 22:37:00,
2013-01-07 17:52:00,32.4,23.0,30.17,NNW,341,0.0,4.0,67,0.00,,,0.01,weatherlink.com 1.10,2013-01-07 22:52:00,
2013-01-07 18:07:00,32.5,23.0,30.17,SSW,194,1.0,6.0,68,0.00,,,0.01,weatherlink.com 1.10,2013-01-07 23:07:00,
2013-01-07 18:22:00,32.4,23.0,30.17,NE,42,0.0,5.0,69,0.00,,,0.01,weatherlink.com 1.10,2013-01-07 23:22:00,
2013-01-07 18:37:00,31.9,23.0,30.17,NNE,27,1.0,4.0,70,0.00,,,0.01,weatherlink.com 1.10,2013-01-07 23:37:00,
2013-01-07 18:52:00,32.1,23.0,30.17,NW,307,4.0,9.0,70,0.00,,,0.01,weatherlink.com 1.10,2013-01-07 23:52:00,
2013-01-07 19:07:00,31.6,24.0,30.17,West,279,1.0,5.0,72,0.00,,,0.01,weatherlink.com 1.10,2013-01-08 00:07:00,
2013-01-07 19:22:00,31.3,24.0,30.17,SW,220,1.0,2.0,73,0.00,,,0.01,weatherlink.com 1.10,2013-01-08 00:22:00,
2013-01-07 19:37:00,31.5,24.0,30.16,SW,225,3.0,6.0,73,0.00,,,0.01,weatherlink.com 1.10,2013-01-08 00:37:00,
2013-01-07 19:52:00,31.3,24.0,30.17,NNE,22,0.0,7.0,74,0.00,,,0.01,weatherlink.com 1.10,2013-01-08 00:52:00,
2013-01-07 20:07:00,31.0,24.0,30.17,SSW,198,0.0,7.0,75,0.00,,,0.01,weatherlink.com 1.10,2013-01-08 01:07:00,
2013-01-07 20:22:00,30.9,24.0,30.16,South,188,2.0,5.0,75,0.00,,,0.01,weatherlink.com 1.10,2013-01-08 01:22:00,
2013-01-07 20:37:00,30.9,24.0,30.16,SSW,203,0.0,6.0,75,0.00,,,0.01,weatherlink.com 1.10,2013-01-08 01:37:00,
2013-01-07 20:52:00,30.7,24.0,30.16,East,92,0.0,6.0,76,0.00,,,0.01,weatherlink.com 1.10,2013-01-08 01:52:00,
2013-01-07 21:07:00,30.3,24.0,30.16,SW,232,0.0,5.0,77,0.00,,,0.01,weatherlink.com 1.10,2013-01-08 02:07:00,
2013-01-07 21:22:00,30.1,24.0,30.16,West,268,0.0,5.0,78,0.00,,,0.01,weatherlink.com 1.10,2013-01-08 02:22:00,
2013-01-07 21:37:00,29.9,24.0,30.16,NNE,30,0.0,4.0,78,0.00,,,0.01,weatherlink.com 1.10,2013-01-08 02:37:00,
2013-01-07 21:52:00,29.8,24.0,30.16,SSE,157,0.0,4.0,78,0.00,,,0.01,weatherlink.com 1.10,2013-01-08 02:52:00,
2013-01-07 22:07:00,29.5,24.0,30.16,East,87,0.0,5.0,79,0.00,,,0.01,weatherlink.com 1.10,2013-01-08 03:07:00,
2013-01-07 22:22:00,29.3,24.0,30.16,NW,321,1.0,4.0,79,0.00,,,0.01,weatherlink.com 1.10,2013-01-08 03:22:00,
2013-01-07 22:37:00,28.9,23.0,30.16,East,95,0.0,2.0,80,0.00,,,0.01,weatherlink.com 1.10,2013-01-08 03:37:00,
2013-01-07 22:52:00,29.0,24.0,30.16,NNW,334,2.0,5.0,80,0.00,,,0.01,weatherlink.com 1.10,2013-01-08 03:52:00,
2013-01-07 23:07:00,28.9,23.0,30.17,NW,321,1.0,6.0,80,0.00,,,0.01,weatherlink.com 1.10,2013-01-08 04:07:00,
2013-01-07 23:22:00,28.5,23.0,30.17,SW,219,0.0,1.0,81,0.00,,,0.01,weatherlink.com 1.10,2013-01-08 04:22:00,
2013-01-07 23:37:00,28.4,24.0,30.18,SE,143,0.0,5.0,82,0.00,,,0.01,weatherlink.com 1.10,2013-01-08 04:37:00,
2013-01-07 23:52:00,28.2,23.0,30.18,North,360,0.0,2.0,82,0.00,,,0.01,weatherlink.com 1.10,2013-01-08 04:52:00,